Time;durP1;ratioP1;P1;durP2;ratioP2;P2;SDS_P1;SDS_P2;PMS_P1;PMS_P2;Temp;Humidity;BMP_temperature;BMP_pressure;BME280_temperature;BME280_humidity;BME280_pressure;Samples;Min_cycle;Max_cycle;Signal;HPM_P1;HPM_P2
2021/07/19 00:02:38;;;;;;;;;;;;;;;21.50;83.77;100712.34;4996927;28;20309;-69
2021/07/19 00:05:22;;;;;;;;;;;;;;;21.44;84.37;100718.59;4995275;28;20060;-69
2021/07/19 00:08:06;;;;;;;;;;;;;;;21.31;84.80;100707.72;4996903;28;19921;-69
2021/07/19 00:10:50;;;;;;;;;;;;;;;21.27;85.15;100709.13;4996316;28;19973;-69
2021/07/19 00:13:34;;;;;;;;;;;;;;;21.28;85.21;100710.00;4996223;28;19932;-70
2021/07/19 00:16:18;;;;;;;;;;;;;;;21.24;85.17;100706.84;4995112;28;19925;-69
2021/07/19 00:19:02;;;;;;;;;;;;;;;21.18;85.65;100704.09;4995033;28;20338;-69
2021/07/19 00:21:46;;;;;;;;;;;;;;;21.18;85.42;100704.94;4995001;28;20263;-69
2021/07/19 00:24:30;;;;;;;;;;;;;;;21.17;86.15;100704.28;4995115;28;20052;-70
2021/07/19 00:27:14;;;;;;;;;;;;;;;21.16;86.02;100698.06;4995782;28;19921;-69
2021/07/19 00:29:58;;;;;;;;;;;;;;;21.14;86.57;100715.56;4994594;28;19967;-70
2021/07/19 00:32:43;;;;;;;;;;;;;;;21.09;87.61;100713.44;4994784;28;19920;-69
2021/07/19 00:35:27;;;;;;;;;;;;;;;21.02;89.43;100714.47;4994857;28;20393;-69
2021/07/19 00:38:10;;;;;;;;;;;;;;;20.93;90.29;100718.38;4980923;28;20441;-68
2021/07/19 00:40:57;;;;;;;;;;;;;;;20.82;90.97;100713.47;4980751;28;19936;-69
2021/07/19 00:43:41;;;;;;;;;;;;;;;20.73;91.79;100723.59;4994551;28;20267;-69
2021/07/19 00:46:25;;;;;;;;;;;;;;;20.64;92.53;100718.56;4994814;28;20374;-69
2021/07/19 00:49:10;;;;;;;;;;;;;;;20.55;93.93;100725.16;4994473;28;19936;-70
2021/07/19 00:51:54;;;;;;;;;;;;;;;20.43;95.23;100721.31;4994466;28;19975;-69
2021/07/19 00:54:38;;;;;;;;;;;;;;;20.30;96.44;100713.09;5038126;23;19932;-66
2021/07/19 00:57:22;;;;;;;;;;;;;;;20.23;97.57;100714.91;5034476;28;19928;-67
2021/07/19 01:00:10;;;;;;;;;;;;;;;20.12;98.70;100707.31;5005657;28;19966;-67
2021/07/19 01:02:54;;;;;;;;;;;;;;;20.06;99.75;100716.19;5002712;28;20013;-67
2021/07/19 01:05:38;;;;;;;;;;;;;;;19.98;99.88;100706.31;4986285;28;19919;-67
2021/07/19 01:08:22;;;;;;;;;;;;;;;19.89;100.00;100717.47;4999936;28;19924;-67
2021/07/19 01:11:06;;;;;;;;;;;;;;;19.81;100.00;100714.88;4999876;28;19971;-67
2021/07/19 01:13:50;;;;;;;;;;;;;;;19.75;100.00;100721.06;5014930;28;19920;-67
2021/07/19 01:16:33;;;;;;;;;;;;;;;19.67;100.00;100715.75;4999587;28;19959;-67
2021/07/19 01:19:17;;;;;;;;;;;;;;;19.63;100.00;100711.78;4999400;28;19920;-67
2021/07/19 01:22:10;;;;;;;;;;;;;;;19.57;100.00;100717.94;4999646;28;19924;-66
2021/07/19 01:24:54;;;;;;;;;;;;;;;19.52;100.00;100714.97;4999572;28;20023;-67
2021/07/19 01:27:57;;;;;;;;;;;;;;;19.52;100.00;100714.97;5014656;28;19936;-67
2021/07/19 01:30:41;;;;;;;;;;;;;;;19.50;100.00;100703.53;5014202;28;20382;-67
2021/07/19 01:33:25;;;;;;;;;;;;;;;19.45;100.00;100708.66;4985967;28;19936;-67
2021/07/19 01:36:09;;;;;;;;;;;;;;;19.46;100.00;100705.75;4999442;28;19921;-66
2021/07/19 01:38:53;;;;;;;;;;;;;;;19.46;100.00;100710.31;4999074;28;20275;-67
2021/07/19 01:41:37;;;;;;;;;;;;;;;19.39;100.00;100704.03;4999081;28;19924;-67
2021/07/19 01:44:21;;;;;;;;;;;;;;;19.35;100.00;100703.56;4999157;28;19963;-66
2021/07/19 01:47:06;;;;;;;;;;;;;;;19.28;100.00;100707.22;4999216;28;19962;-66
2021/07/19 01:49:50;;;;;;;;;;;;;;;19.22;100.00;100703.41;4999377;28;19920;-67
2021/07/19 01:52:34;;;;;;;;;;;;;;;19.14;100.00;100705.31;4999188;28;19920;-67
2021/07/19 01:55:18;;;;;;;;;;;;;;;19.06;100.00;100698.16;4999163;28;19935;-67
2021/07/19 01:58:02;;;;;;;;;;;;;;;19.02;100.00;100712.22;4985246;28;19924;-66
2021/07/19 02:00:46;;;;;;;;;;;;;;;18.98;100.00;100702.84;4998814;28;20006;-67
2021/07/19 02:03:30;;;;;;;;;;;;;;;18.94;100.00;100705.06;4998898;28;19920;-67
2021/07/19 02:06:14;;;;;;;;;;;;;;;18.91;100.00;100699.19;4998653;28;19920;-67
2021/07/19 02:09:01;;;;;;;;;;;;;;;18.87;100.00;100698.72;4999177;28;19967;-65
2021/07/19 02:11:45;;;;;;;;;;;;;;;18.85;100.00;100694.53;4998912;28;20326;-67
2021/07/19 02:14:28;;;;;;;;;;;;;;;18.84;100.00;100692.84;4998465;28;19932;-67
2021/07/19 02:17:12;;;;;;;;;;;;;;;18.81;100.00;100693.25;4998707;28;19925;-65
2021/07/19 02:19:56;;;;;;;;;;;;;;;18.79;100.00;100698.00;4984893;28;20282;-67
2021/07/19 02:22:41;;;;;;;;;;;;;;;18.78;100.00;100693.63;4998611;28;20351;-66
2021/07/19 02:25:25;;;;;;;;;;;;;;;18.78;100.00;100704.44;4985001;28;19920;-67
2021/07/19 02:28:09;;;;;;;;;;;;;;;18.73;100.00;100696.03;4998701;28;19987;-67
2021/07/19 02:30:53;;;;;;;;;;;;;;;18.67;100.00;100694.09;4998632;28;19920;-67
2021/07/19 02:33:38;;;;;;;;;;;;;;;18.65;100.00;100693.41;4998354;28;19920;-66
2021/07/19 02:36:22;;;;;;;;;;;;;;;18.60;100.00;100694.00;4998335;28;20062;-67
2021/07/19 02:39:05;;;;;;;;;;;;;;;18.56;100.00;100699.94;4998398;28;19920;-66
2021/07/19 02:41:49;;;;;;;;;;;;;;;18.52;100.00;100698.63;5013359;28;19924;-66
2021/07/19 02:44:33;;;;;;;;;;;;;;;18.49;100.00;100694.44;4998367;28;20270;-67
2021/07/19 02:47:18;;;;;;;;;;;;;;;18.50;100.00;100696.13;4984748;28;19920;-66
2021/07/19 02:50:03;;;;;;;;;;;;;;;18.49;100.00;100696.31;4998314;28;19968;-67
2021/07/19 02:52:47;;;;;;;;;;;;;;;18.46;100.00;100705.59;4998224;28;19920;-67
2021/07/19 02:55:31;;;;;;;;;;;;;;;18.44;100.00;100690.59;4984673;28;20003;-67
2021/07/19 02:58:17;;;;;;;;;;;;;;;18.42;100.00;100698.06;4998054;28;19920;-66
2021/07/19 03:01:01;;;;;;;;;;;;;;;18.39;100.00;100703.84;4984660;28;19967;-65
2021/07/19 03:03:45;;;;;;;;;;;;;;;18.37;100.00;100705.88;4998428;28;20405;-66
2021/07/19 03:06:31;;;;;;;;;;;;;;;18.34;100.00;100706.22;4998062;28;20298;-66
2021/07/19 03:09:14;;;;;;;;;;;;;;;18.32;100.00;100708.28;4984274;28;19919;-65
2021/07/19 03:12:00;;;;;;;;;;;;;;;18.28;100.00;100709.66;4998248;28;19921;-63
2021/07/19 03:14:44;;;;;;;;;;;;;;;18.24;100.00;100705.63;4984926;28;19975;-66
2021/07/19 03:17:27;;;;;;;;;;;;;;;18.20;100.00;100707.00;4984384;28;20389;-67
2021/07/19 03:20:12;;;;;;;;;;;;;;;18.15;100.00;100700.47;4997848;28;19971;-66
2021/07/19 03:22:55;;;;;;;;;;;;;;;18.13;100.00;100706.06;4984103;28;19994;-67
2021/07/19 03:25:40;;;;;;;;;;;;;;;18.10;100.00;100703.72;4998050;28;20294;-67
2021/07/19 03:28:24;;;;;;;;;;;;;;;18.05;100.00;100708.84;5001837;28;19920;-67
2021/07/19 03:31:08;;;;;;;;;;;;;;;18.00;100.00;100702.31;5001773;28;19919;-67
2021/07/19 03:33:52;;;;;;;;;;;;;;;17.94;100.00;100697.63;4987900;28;19920;-67
2021/07/19 03:36:36;;;;;;;;;;;;;;;17.90;100.00;100707.94;5001368;28;19920;-67
2021/07/19 03:39:20;;;;;;;;;;;;;;;17.88;100.00;100711.81;4987615;28;19920;-66
2021/07/19 03:42:05;;;;;;;;;;;;;;;17.88;100.00;100712.69;5001575;28;20281;-66
2021/07/19 03:44:49;;;;;;;;;;;;;;;17.88;100.00;100715.38;5001549;28;19920;-66
2021/07/19 03:47:32;;;;;;;;;;;;;;;17.89;100.00;100710.84;5001773;28;19924;-66
2021/07/19 03:50:16;;;;;;;;;;;;;;;17.90;100.00;100710.63;5001358;28;19920;-67
2021/07/19 03:53:00;;;;;;;;;;;;;;;17.92;100.00;100710.47;5001219;28;19928;-67
2021/07/19 03:55:44;;;;;;;;;;;;;;;17.91;100.00;100703.41;4987550;28;19924;-67
2021/07/19 03:58:31;;;;;;;;;;;;;;;17.92;100.00;100710.47;5001098;28;19921;-65
2021/07/19 04:01:15;;;;;;;;;;;;;;;17.92;100.00;100702.38;5000984;28;20293;-67
2021/07/19 04:04:05;;;;;;;;;;;;;;;17.92;100.00;100716.69;5000923;28;19920;-67
2021/07/19 04:06:49;;;;;;;;;;;;;;;17.90;100.00;100707.13;5002050;28;20008;-66
2021/07/19 04:09:33;;;;;;;;;;;;;;;17.88;100.00;100704.59;5000834;28;20274;-66
2021/07/19 04:12:17;;;;;;;;;;;;;;;17.89;100.00;100705.44;5001026;28;19920;-67
2021/07/19 04:15:02;;;;;;;;;;;;;;;17.89;100.00;100714.34;5000661;28;19979;-67
2021/07/19 04:17:47;;;;;;;;;;;;;;;17.91;100.00;100714.19;5000595;28;19983;-67
2021/07/19 04:20:30;;;;;;;;;;;;;;;17.96;100.00;100706.38;5000879;28;20386;-67
2021/07/19 04:23:15;;;;;;;;;;;;;;;17.99;100.00;100706.84;4986967;28;19968;-66
2021/07/19 04:25:58;;;;;;;;;;;;;;;18.04;100.00;100715.25;5000643;28;20054;-67
2021/07/19 04:28:42;;;;;;;;;;;;;;;18.08;100.00;100719.25;5000468;28;20376;-67
2021/07/19 04:31:26;;;;;;;;;;;;;;;18.11;100.00;100716.19;5000756;28;20005;-67
2021/07/19 04:34:10;;;;;;;;;;;;;;;18.12;100.00;100717.88;5000411;28;20009;-67
2021/07/19 04:36:57;;;;;;;;;;;;;;;18.17;100.00;100728.13;5000427;28;20284;-67
2021/07/19 04:39:41;;;;;;;;;;;;;;;18.21;100.00;100714.09;5015099;28;19971;-67
2021/07/19 04:42:24;;;;;;;;;;;;;;;18.26;100.00;100721.63;5000693;28;20032;-66
2021/07/19 04:45:09;;;;;;;;;;;;;;;18.30;100.00;100715.72;5000382;28;19920;-66
2021/07/19 04:47:52;;;;;;;;;;;;;;;18.35;100.00;100724.13;5014966;28;20056;-66
2021/07/19 04:50:36;;;;;;;;;;;;;;;18.41;100.00;100717.97;5000022;28;20328;-66
2021/07/19 04:53:20;;;;;;;;;;;;;;;18.47;100.00;100714.56;5000113;28;19967;-66
2021/07/19 04:56:04;;;;;;;;;;;;;;;18.54;100.00;100726.28;5000095;28;20302;-67
2021/07/19 04:58:48;;;;;;;;;;;;;;;18.58;100.00;100719.50;4999867;28;20338;-67
2021/07/19 05:01:33;;;;;;;;;;;;;;;18.64;100.00;100721.44;4986178;28;19923;-67
2021/07/19 05:04:17;;;;;;;;;;;;;;;18.73;100.00;100723.03;5000293;28;19936;-67
2021/07/19 05:07:01;;;;;;;;;;;;;;;18.80;100.00;100722.09;5014700;28;19976;-66
2021/07/19 05:09:45;;;;;;;;;;;;;;;18.87;100.00;100731.16;5014605;28;19936;-65
2021/07/19 05:12:30;;;;;;;;;;;;;;;18.93;100.00;100724.16;4986587;28;20290;-65
2021/07/19 05:15:14;;;;;;;;;;;;;;;18.99;100.00;100734.25;5000361;28;19967;-66
2021/07/19 05:17:58;;;;;;;;;;;;;;;19.05;100.00;100728.91;4999866;28;19991;-66
2021/07/19 05:20:42;;;;;;;;;;;;;;;19.17;100.00;100732.81;4985826;28;20342;-67
2021/07/19 05:23:26;;;;;;;;;;;;;;;19.29;100.00;100725.09;4999496;28;19971;-67
2021/07/19 05:26:12;;;;;;;;;;;;;;;19.45;100.00;100724.88;4999827;28;19920;-66
2021/07/19 05:28:56;;;;;;;;;;;;;;;19.61;100.00;100725.47;4999324;28;19924;-66
2021/07/19 05:31:40;;;;;;;;;;;;;;;19.74;100.00;100725.66;4999469;28;19940;-67
2021/07/19 05:34:24;;;;;;;;;;;;;;;19.87;100.00;100730.34;4999262;28;19968;-66
2021/07/19 05:37:08;;;;;;;;;;;;;;;19.97;100.00;100725.44;4999255;28;19920;-67
2021/07/19 05:39:52;;;;;;;;;;;;;;;20.05;99.95;100726.19;4999301;28;19920;-67
2021/07/19 05:42:36;;;;;;;;;;;;;;;20.16;99.76;100725.69;4999092;28;19921;-66
2021/07/19 05:45:19;;;;;;;;;;;;;;;20.22;99.09;100726.75;4999338;28;20089;-67
2021/07/19 05:48:04;;;;;;;;;;;;;;;20.30;97.58;100724.75;5014035;28;19924;-66
2021/07/19 05:50:48;;;;;;;;;;;;;;;20.40;96.31;100727.94;4998969;28;19924;-66
2021/07/19 05:53:32;;;;;;;;;;;;;;;20.47;96.49;100728.00;4985086;28;19920;-65
2021/07/19 05:56:16;;;;;;;;;;;;;;;20.52;93.76;100725.56;5013760;28;20493;-66
2021/07/19 05:59:00;;;;;;;;;;;;;;;20.64;92.92;100732.09;4998763;28;20008;-66
2021/07/19 06:01:44;;;;;;;;;;;;;;;20.66;92.87;100722.75;4998858;28;19919;-66
2021/07/19 06:04:28;;;;;;;;;;;;;;;20.73;92.65;100729.03;5013564;28;19924;-66
2021/07/19 06:07:12;;;;;;;;;;;;;;;20.82;92.28;100721.59;5013781;28;19970;-66
2021/07/19 06:09:56;;;;;;;;;;;;;;;20.89;92.04;100722.50;5013833;28;20432;-67
2021/07/19 06:12:40;;;;;;;;;;;;;;;20.97;91.06;100725.91;4998533;28;20394;-66
2021/07/19 06:15:24;;;;;;;;;;;;;;;21.04;91.27;100721.31;5013685;28;19960;-67
2021/07/19 06:18:08;;;;;;;;;;;;;;;21.13;91.61;100725.53;4998557;28;19921;-66
2021/07/19 06:20:52;;;;;;;;;;;;;;;21.17;89.88;100727.66;4998861;28;19924;-67
2021/07/19 06:23:36;;;;;;;;;;;;;;;21.29;89.75;100720.63;5013395;28;19924;-67
2021/07/19 06:26:20;;;;;;;;;;;;;;;21.44;89.69;100718.59;4985217;28;20270;-67
2021/07/19 06:29:04;;;;;;;;;;;;;;;21.52;88.85;100715.72;4998509;28;20504;-64
2021/07/19 06:31:48;;;;;;;;;;;;;;;21.61;87.54;100719.91;4998607;28;19924;-66
2021/07/19 06:34:32;;;;;;;;;;;;;;;21.68;85.30;100714.53;5013170;28;20012;-66
2021/07/19 06:37:16;;;;;;;;;;;;;;;21.82;84.61;100722.53;5013219;28;20350;-66
2021/07/19 06:40:00;;;;;;;;;;;;;;;21.84;83.51;100720.44;5013607;28;19920;-66
2021/07/19 06:42:44;;;;;;;;;;;;;;;21.94;83.46;100720.88;4998407;28;19920;-66
2021/07/19 06:45:28;;;;;;;;;;;;;;;22.02;83.16;100723.34;4998260;28;20060;-67
2021/07/19 06:48:12;;;;;;;;;;;;;;;22.10;82.33;100720.44;4984625;28;19920;-68
2021/07/19 06:50:56;;;;;;;;;;;;;;;22.15;81.73;100717.97;4984757;28;20263;-67
2021/07/19 06:53:40;;;;;;;;;;;;;;;22.27;81.36;100720.88;4998378;28;19924;-67
2021/07/19 06:56:24;;;;;;;;;;;;;;;22.39;80.73;100722.75;5036242;22;20290;-68
2021/07/19 06:59:08;;;;;;;;;;;;;;;22.38;79.68;100721.09;4998224;28;19924;-67
2021/07/19 07:01:52;;;;;;;;;;;;;;;22.41;79.30;100720.69;5015319;28;19919;-68
2021/07/19 07:04:36;;;;;;;;;;;;;;;22.45;79.14;100721.97;5002208;28;19920;-68
2021/07/19 07:07:19;;;;;;;;;;;;;;;22.51;79.05;100729.28;4997210;28;20432;-69
2021/07/19 07:10:04;;;;;;;;;;;;;;;22.61;78.64;100724.25;4997240;28;19944;-68
2021/07/19 07:12:48;;;;;;;;;;;;;;;22.63;78.58;100722.16;4982643;28;20032;-68
2021/07/19 07:15:32;;;;;;;;;;;;;;;22.71;77.76;100719.22;4982320;28;19972;-68
2021/07/19 07:18:16;;;;;;;;;;;;;;;22.85;77.11;100723.59;4982220;28;19984;-68
2021/07/19 07:21:00;;;;;;;;;;;;;;;22.93;77.54;100720.63;4982369;28;19920;-68
2021/07/19 07:23:44;;;;;;;;;;;;;;;23.06;77.44;100717.91;4982098;28;19920;-68
2021/07/19 07:26:28;;;;;;;;;;;;;;;23.15;76.52;100715.81;4982432;28;19921;-68
2021/07/19 07:29:12;;;;;;;;;;;;;;;23.23;75.55;100713.66;4996810;28;19924;-67
2021/07/19 07:31:56;;;;;;;;;;;;;;;23.26;75.08;100721.41;4968286;28;19920;-68
2021/07/19 07:34:41;;;;;;;;;;;;;;;23.38;74.85;100710.69;4968245;28;20310;-68
2021/07/19 07:37:24;;;;;;;;;;;;;;;23.45;74.68;100715.03;4996927;28;19921;-68
2021/07/19 07:40:09;;;;;;;;;;;;;;;23.47;74.66;100710.22;4968435;28;19963;-68
2021/07/19 07:42:53;;;;;;;;;;;;;;;23.52;74.80;100712.31;4981815;28;20075;-68
2021/07/19 07:45:37;;;;;;;;;;;;;;;23.61;75.02;100711.81;4996639;28;19921;-68
2021/07/19 07:48:20;;;;;;;;;;;;;;;23.62;72.38;100707.22;4995669;28;19929;-68
2021/07/19 07:51:04;;;;;;;;;;;;;;;23.72;73.62;100705.69;4981696;28;19921;-68
2021/07/19 07:53:48;;;;;;;;;;;;;;;23.75;72.87;100705.25;4996659;28;19976;-68
2021/07/19 07:56:33;;;;;;;;;;;;;;;23.73;72.52;100699.19;4981425;28;20393;-68
2021/07/19 07:59:17;;;;;;;;;;;;;;;23.82;72.52;100699.78;4981815;28;19921;-68
2021/07/19 08:02:01;;;;;;;;;;;;;;;23.87;72.33;100703.53;4981546;28;19921;-68
2021/07/19 08:04:45;;;;;;;;;;;;;;;23.98;72.32;100700.13;4981618;28;19936;-68
2021/07/19 08:07:28;;;;;;;;;;;;;;;24.00;71.74;100694.44;4996416;28;20385;-68
2021/07/19 08:10:14;;;;;;;;;;;;;;;24.04;71.50;100696.50;4996463;28;19925;-68
2021/07/19 08:12:59;;;;;;;;;;;;;;;24.09;70.55;100693.97;4967355;28;20018;-68
2021/07/19 08:15:47;;;;;;;;;;;;;;;24.13;73.41;100687.00;4996103;28;19936;-68
2021/07/19 08:18:32;;;;;;;;;;;;;;;24.20;72.07;100685.06;4982113;28;20374;-68
2021/07/19 08:21:15;;;;;;;;;;;;;;;24.36;71.84;100692.66;4996213;28;19931;-68
2021/07/19 08:23:59;;;;;;;;;;;;;;;24.41;70.14;100688.22;4981060;28;19971;-68
2021/07/19 08:26:43;;;;;;;;;;;;;;;24.46;70.46;100665.75;4967387;28;19968;-68
2021/07/19 08:29:27;;;;;;;;;;;;;;;24.49;72.50;100684.41;4995768;28;19941;-68
2021/07/19 08:32:12;;;;;;;;;;;;;;;24.58;70.76;100677.59;4981205;28;19960;-68
2021/07/19 08:34:56;;;;;;;;;;;;;;;24.63;71.73;100680.50;4995660;28;19964;-69
2021/07/19 08:37:41;;;;;;;;;;;;;;;24.73;70.98;100680.81;4980855;28;20382;-68
2021/07/19 08:40:25;;;;;;;;;;;;;;;24.81;69.88;100675.06;4967254;28;19944;-69
2021/07/19 08:43:11;;;;;;;;;;;;;;;24.90;69.96;100671.00;4980895;28;20366;-67
2021/07/19 08:45:55;;;;;;;;;;;;;;;24.98;69.45;100667.94;4980970;28;19998;-68
2021/07/19 08:48:39;;;;;;;;;;;;;;;25.09;67.60;100664.44;4980575;28;19964;-68
2021/07/19 08:51:22;;;;;;;;;;;;;;;25.16;68.48;100666.06;4995561;28;19921;-68
2021/07/19 08:54:08;;;;;;;;;;;;;;;25.30;70.04;100666.75;4980654;28;20294;-68
2021/07/19 08:56:52;;;;;;;;;;;;;;;25.39;66.42;100670.81;4980152;28;19921;-68
2021/07/19 08:59:36;;;;;;;;;;;;;;;25.47;65.76;100682.25;4980059;28;19973;-68
2021/07/19 09:02:19;;;;;;;;;;;;;;;25.44;64.87;100668.25;4980414;28;19999;-68
2021/07/19 09:05:04;;;;;;;;;;;;;;;25.47;64.25;100663.16;4966737;28;20374;-68
2021/07/19 09:07:50;;;;;;;;;;;;;;;25.57;63.67;100676.25;4980247;28;19937;-68
2021/07/19 09:10:34;;;;;;;;;;;;;;;25.57;64.37;100670.78;4980554;28;19960;-68
2021/07/19 09:13:18;;;;;;;;;;;;;;;25.76;63.73;100677.84;4980325;28;19924;-68
2021/07/19 09:16:02;;;;;;;;;;;;;;;25.86;63.83;100686.31;4980342;28;20379;-68
2021/07/19 09:18:46;;;;;;;;;;;;;;;25.96;63.46;100675.69;4980370;28;19940;-69
2021/07/19 09:21:33;;;;;;;;;;;;;;;26.03;62.06;100673.69;4980170;28;19968;-68
2021/07/19 09:24:18;;;;;;;;;;;;;;;26.18;60.96;100664.00;4979146;28;19921;-68
2021/07/19 09:27:03;;;;;;;;;;;;;;;26.27;62.23;100664.47;4995192;28;20441;-68
2021/07/19 09:29:47;;;;;;;;;;;;;;;26.43;60.85;100666.50;4966548;28;19925;-69
2021/07/19 09:32:31;;;;;;;;;;;;;;;26.36;60.82;100663.03;4979742;28;19990;-68
2021/07/19 09:35:15;;;;;;;;;;;;;;;26.55;60.76;100659.16;4979913;28;19921;-68
2021/07/19 09:38:06;;;;;;;;;;;;;;;26.75;59.93;100659.63;4979958;28;19979;-68
2021/07/19 09:40:53;;;;;;;;;;;;;;;26.87;59.69;100654.97;4979942;28;19925;-68
2021/07/19 09:43:37;;;;;;;;;;;;;;;27.07;58.69;100648.84;4965999;28;19920;-68
2021/07/19 09:46:20;;;;;;;;;;;;;;;27.17;58.19;100648.25;4979466;28;19920;-68
2021/07/19 09:49:05;;;;;;;;;;;;;;;27.42;57.17;100644.13;4979489;28;19944;-68
2021/07/19 09:51:56;;;;;;;;;;;;;;;27.58;56.00;100643.34;4994272;28;19922;-68
2021/07/19 09:54:44;;;;;;;;;;;;;;;27.64;54.49;100636.88;4979679;28;19945;-68
2021/07/19 09:57:28;;;;;;;;;;;;;;;28.00;54.57;100636.47;4979511;28;20398;-68
2021/07/19 10:00:12;;;;;;;;;;;;;;;28.27;55.20;100637.47;4979709;28;20076;-68
2021/07/19 10:02:56;;;;;;;;;;;;;;;28.57;53.76;100637.97;4965747;28;20389;-68
2021/07/19 10:05:40;;;;;;;;;;;;;;;28.72;51.04;100635.44;4994020;28;19925;-69
2021/07/19 10:08:23;;;;;;;;;;;;;;;28.96;49.96;100631.38;4994147;28;19941;-69
2021/07/19 10:11:14;;;;;;;;;;;;;;;29.21;51.13;100639.97;4994266;28;19937;-68
2021/07/19 10:13:58;;;;;;;;;;;;;;;29.19;49.59;100633.91;4979265;28;19925;-69
2021/07/19 10:16:42;;;;;;;;;;;;;;;29.16;49.21;100630.81;4979019;28;19921;-69
2021/07/19 10:19:26;;;;;;;;;;;;;;;29.28;47.91;100628.78;4965654;28;19962;-69
2021/07/19 10:22:11;;;;;;;;;;;;;;;30.15;46.32;100628.31;4965404;28;19921;-68
2021/07/19 10:24:55;;;;;;;;;;;;;;;30.64;46.98;100627.06;4979247;28;19921;-69
2021/07/19 10:27:39;;;;;;;;;;;;;;;31.62;45.79;100622.25;4979188;28;20389;-69
2021/07/19 10:30:23;;;;;;;;;;;;;;;32.77;41.64;100621.47;4978996;28;19976;-69
2021/07/19 10:33:07;;;;;;;;;;;;;;;34.02;38.11;100618.84;4965349;28;19921;-69
2021/07/19 10:35:51;;;;;;;;;;;;;;;35.69;35.27;100612.84;4993517;28;19935;-69
2021/07/19 10:38:35;;;;;;;;;;;;;;;37.01;32.85;100616.59;4965215;28;19920;-69
2021/07/19 10:41:22;;;;;;;;;;;;;;;37.29;32.06;100615.47;4965606;28;19937;-69
2021/07/19 10:44:07;;;;;;;;;;;;;;;38.68;30.06;100621.50;4979213;28;19936;-69
2021/07/19 10:46:51;;;;;;;;;;;;;;;40.14;28.53;100614.81;4965279;28;20282;-69
2021/07/19 10:49:40;;;;;;;;;;;;;;;40.94;26.29;100603.59;4978912;28;19979;-69
2021/07/19 10:52:32;;;;;;;;;;;;;;;41.33;26.63;100602.41;4979828;28;19921;-69
2021/07/19 10:55:26;;;;;;;;;;;;;;;41.93;24.66;100594.34;4964690;28;19921;-69
2021/07/19 10:58:15;;;;;;;;;;;;;;;42.70;24.79;100609.22;4978883;28;19979;-69
2021/07/19 11:00:59;;;;;;;;;;;;;;;43.34;23.22;100598.97;4965288;28;19927;-70
2021/07/19 11:03:43;;;;;;;;;;;;;;;43.09;22.85;100603.75;4965154;28;20282;-69
2021/07/19 11:06:31;;;;;;;;;;;;;;;41.97;24.25;100589.69;4978831;28;20287;-70
2021/07/19 11:09:15;;;;;;;;;;;;;;;41.99;24.73;100598.56;4978564;28;19924;-69
2021/07/19 11:12:05;;;;;;;;;;;;;;;42.51;23.73;100599.72;4965425;28;20270;-69
2021/07/19 11:14:50;;;;;;;;;;;;;;;43.27;23.14;100585.53;4978975;28;19920;-70
2021/07/19 11:17:34;;;;;;;;;;;;;;;43.40;22.68;100591.94;4993309;28;19977;-70
2021/07/19 11:20:18;;;;;;;;;;;;;;;43.14;23.06;100597.09;4993244;28;19921;-70
2021/07/19 11:23:02;;;;;;;;;;;;;;;43.97;21.91;100589.66;4978472;28;19920;-69
2021/07/19 11:25:46;;;;;;;;;;;;;;;43.11;22.73;100598.59;4978529;28;19936;-69
2021/07/19 11:28:31;;;;;;;;;;;;;;;43.04;21.64;100592.78;4978587;28;20414;-70
2021/07/19 11:31:27;;;;;;;;;;;;;;;42.24;22.54;100592.72;4978551;28;19920;-69
2021/07/19 11:34:11;;;;;;;;;;;;;;;42.06;23.22;100591.25;4992061;28;20382;-69
2021/07/19 11:36:54;;;;;;;;;;;;;;;41.70;24.00;100587.44;4978394;28;20020;-69
2021/07/19 11:39:57;;;;;;;;;;;;;;;42.47;22.84;100581.94;4993277;28;19972;-69
2021/07/19 11:42:44;;;;;;;;;;;;;;;42.07;23.19;100578.91;4978276;28;19920;-70
2021/07/19 11:45:28;;;;;;;;;;;;;;;41.82;23.56;100573.53;4978223;28;19936;-69
2021/07/19 11:48:11;;;;;;;;;;;;;;;42.53;22.26;100577.78;4980486;28;20071;-68
2021/07/19 11:50:56;;;;;;;;;;;;;;;42.97;22.16;100581.31;4981745;28;19920;-69
2021/07/19 11:53:41;;;;;;;;;;;;;;;43.42;21.10;100575.56;4981572;28;19925;-70
2021/07/19 11:56:26;;;;;;;;;;;;;;;44.42;20.44;100562.88;4981403;28;19920;-69
2021/07/19 11:59:10;;;;;;;;;;;;;;;44.45;20.84;100569.78;4995419;28;20045;-70
2021/07/19 12:02:04;;;;;;;;;;;;;;;45.35;19.62;100571.25;4996796;28;19920;-69
2021/07/19 12:04:47;;;;;;;;;;;;;;;45.01;20.05;100565.56;4981626;28;20303;-70
2021/07/19 12:07:31;;;;;;;;;;;;;;;45.18;20.04;100559.59;4996417;28;20420;-70
2021/07/19 12:10:15;;;;;;;;;;;;;;;44.67;19.60;100569.97;4981821;28;19920;-70
2021/07/19 12:13:14;;;;;;;;;;;;;;;44.10;19.90;100568.78;4981584;28;19924;-69
2021/07/19 12:15:58;;;;;;;;;;;;;;;43.75;20.72;100567.75;4981541;28;20008;-69
2021/07/19 12:18:48;;;;;;;;;;;;;;;43.78;20.71;100570.66;4981149;28;19971;-69
2021/07/19 12:21:36;;;;;;;;;;;;;;;43.86;20.85;100563.25;4981537;28;19921;-69
2021/07/19 12:24:20;;;;;;;;;;;;;;;44.26;19.50;100549.94;4981486;28;19924;-70
2021/07/19 12:27:05;;;;;;;;;;;;;;;44.31;20.21;100552.47;4996073;28;20035;-70
2021/07/19 12:29:50;;;;;;;;;;;;;;;44.59;19.32;100544.81;4996048;28;19969;-70
2021/07/19 12:32:33;;;;;;;;;;;;;;;44.48;18.23;100547.38;4995744;28;19935;-69
2021/07/19 12:35:22;;;;;;;;;;;;;;;43.49;19.41;100547.66;4967610;28;19936;-70
2021/07/19 12:38:05;;;;;;;;;;;;;;;43.55;19.69;100547.09;4981438;28;19928;-69
2021/07/19 12:40:49;;;;;;;;;;;;;;;43.62;19.50;100546.47;4981018;28;20067;-70
2021/07/19 12:43:33;;;;;;;;;;;;;;;43.94;18.94;100546.22;4995641;28;19920;-70
2021/07/19 12:46:17;;;;;;;;;;;;;;;43.45;18.76;100538.34;4980995;28;20009;-70
2021/07/19 12:49:01;;;;;;;;;;;;;;;43.58;18.66;100535.13;4980909;28;20343;-70
2021/07/19 12:51:45;;;;;;;;;;;;;;;43.11;19.58;100536.88;4995635;28;19932;-70
2021/07/19 12:54:30;;;;;;;;;;;;;;;43.42;19.60;100547.47;4980651;28;20283;-70
2021/07/19 12:57:17;;;;;;;;;;;;;;;43.06;19.81;100539.09;5032010;23;19928;-69
2021/07/19 13:00:04;;;;;;;;;;;;;;;42.81;20.12;100540.28;4999977;28;19925;-68
2021/07/19 13:02:57;;;;;;;;;;;;;;;43.67;20.49;100540.63;5014973;28;19921;-69
2021/07/19 13:05:48;;;;;;;;;;;;;;;43.61;20.34;100536.44;5015015;28;19991;-71
2021/07/19 13:08:32;;;;;;;;;;;;;;;42.54;20.12;100532.56;4980841;28;19932;-71
2021/07/19 13:11:16;;;;;;;;;;;;;;;42.24;21.13;100538.69;4966784;28;19921;-71
2021/07/19 13:14:07;;;;;;;;;;;;;;;42.64;20.78;100534.09;4980079;28;19920;-71
2021/07/19 13:16:59;;;;;;;;;;;;;;;41.43;21.15;100530.03;4980653;28;19921;-71
2021/07/19 13:19:45;;;;;;;;;;;;;;;40.99;21.91;100527.03;4979924;28;20345;-71
2021/07/19 13:22:30;;;;;;;;;;;;;;;41.44;21.71;100531.66;4980200;28;20326;-71
2021/07/19 13:25:22;;;;;;;;;;;;;;;42.06;21.19;100532.41;4994987;28;19920;-71
2021/07/19 13:28:06;;;;;;;;;;;;;;;42.77;20.30;100533.72;4979777;28;19921;-70
2021/07/19 13:30:50;;;;;;;;;;;;;;;42.90;20.10;100530.59;4980274;28;20374;-71
2021/07/19 13:33:34;;;;;;;;;;;;;;;42.29;20.36;100525.28;4979678;28;19921;-71
2021/07/19 13:36:17;;;;;;;;;;;;;;;42.56;19.80;100527.41;4966298;28;19921;-70
2021/07/19 13:39:02;;;;;;;;;;;;;;;42.19;20.00;100522.09;4979861;28;19929;-70
2021/07/19 13:41:46;;;;;;;;;;;;;;;42.50;19.90;100519.59;4979980;28;19921;-69
2021/07/19 13:44:30;;;;;;;;;;;;;;;42.92;20.32;100513.41;4979666;28;19968;-70
2021/07/19 13:47:14;;;;;;;;;;;;;;;42.22;20.70;100518.56;4979352;28;19921;-70
2021/07/19 13:49:58;;;;;;;;;;;;;;;42.30;20.10;100512.88;4979680;28;19925;-68
2021/07/19 13:52:42;;;;;;;;;;;;;;;42.47;20.30;100515.44;4994494;28;20367;-70
2021/07/19 13:55:26;;;;;;;;;;;;;;;41.64;20.65;100510.44;4979686;28;20274;-70
2021/07/19 13:58:10;;;;;;;;;;;;;;;41.95;20.55;100514.41;4965711;28;19973;-70
2021/07/19 14:00:55;;;;;;;;;;;;;;;41.08;21.47;100517.44;4979519;28;19921;-70
2021/07/19 14:03:40;;;;;;;;;;;;;;;40.71;21.91;100509.91;4994293;28;20374;-70